createdAt,value
2019-02-06T00:01:39.301Z,101659.28
2019-02-06T00:03:46.655Z,101651.48
2019-02-06T00:05:53.853Z,101657.11
2019-02-06T00:08:01.196Z,101658.41
2019-02-06T00:10:08.707Z,101664.48
2019-02-06T00:12:16.104Z,101662.76
2019-02-06T00:14:23.554Z,101661.46
2019-02-06T00:16:30.704Z,101657.99
2019-02-06T00:18:38.118Z,101655.86
2019-02-06T00:20:45.618Z,101661.46
2019-02-06T00:22:53.037Z,101667.54
2019-02-06T00:25:00.444Z,101657.56
2019-02-06T00:27:07.973Z,101655.88
2019-02-06T00:29:15.361Z,101653.28
2019-02-06T00:31:22.527Z,101657.17
2019-02-06T00:33:29.960Z,101663.64
2019-02-06T00:35:37.306Z,101665.83
2019-02-06T00:37:44.753Z,101664.07
2019-02-06T00:39:52.160Z,101672.27
2019-02-06T00:42:01.311Z,101662.80
2019-02-06T00:44:08.814Z,101664.07
2019-02-06T00:46:16.281Z,101670.17
2019-02-06T00:48:23.787Z,101666.25
2019-02-06T00:50:31.303Z,101662.81
2019-02-06T00:52:38.708Z,101672.73
2019-02-06T00:54:46.049Z,101661.94
2019-02-06T00:56:53.630Z,101661.94
2019-02-06T00:59:01.129Z,101664.12
2019-02-06T01:01:09.035Z,101666.25
2019-02-06T01:03:16.630Z,101670.58
2019-02-06T01:05:24.189Z,101662.81
2019-02-06T01:07:31.590Z,101671.49
2019-02-06T01:09:39.045Z,101679.28
2019-02-06T01:11:46.426Z,101670.61
2019-02-06T01:13:53.887Z,101669.31
2019-02-06T01:16:01.283Z,101674.93
2019-02-06T01:18:08.705Z,101672.36
2019-02-06T01:20:17.117Z,101671.49
2019-02-06T01:22:24.509Z,101673.67
2019-02-06T01:24:32.219Z,101668.89
2019-02-06T01:26:39.781Z,101665.00
2019-02-06T01:28:47.051Z,101664.14
2019-02-06T01:31:04.062Z,101665.89
2019-02-06T01:33:11.477Z,101658.08
2019-02-06T01:35:18.849Z,101667.59
2019-02-06T01:37:26.227Z,101665.89
2019-02-06T01:39:33.864Z,101662.42
2019-02-06T01:41:41.238Z,101662.41
2019-02-06T01:43:48.627Z,101665.47
2019-02-06T01:45:56.023Z,101668.50
2019-02-06T01:48:03.383Z,101662.88
2019-02-06T01:50:12.430Z,101646.84
2019-02-06T01:52:19.441Z,101632.55
2019-02-06T01:54:26.473Z,101636.03
2019-02-06T01:56:33.535Z,101634.73
2019-02-06T01:58:40.734Z,101645.95
2019-02-06T02:00:47.980Z,101660.28
2019-02-06T02:02:55.316Z,101658.98
2019-02-06T02:05:02.728Z,101649.90
2019-02-06T02:07:10.555Z,101655.97
2019-02-06T02:09:21.297Z,101652.08
2019-02-06T02:11:28.660Z,101652.08
2019-02-06T02:13:36.231Z,101642.95
2019-02-06T02:15:43.718Z,101632.12
2019-02-06T02:17:51.088Z,101643.00
2019-02-06T02:19:58.434Z,101652.48
2019-02-06T02:22:06.078Z,101660.30
2019-02-06T02:24:13.338Z,101650.34
2019-02-06T02:26:20.774Z,101654.67
2019-02-06T02:28:28.095Z,101656.87
2019-02-06T02:30:43.338Z,101660.33
2019-02-06T02:32:50.338Z,101657.71
2019-02-06T02:34:57.392Z,101656.87
2019-02-06T02:37:04.797Z,101662.49
2019-02-06T02:39:11.850Z,101666.82
2019-02-06T02:41:18.887Z,101673.34
2019-02-06T02:43:25.887Z,101664.25
2019-02-06T02:45:33.207Z,101673.34
2019-02-06T02:47:40.301Z,101664.69
2019-02-06T02:49:47.663Z,101675.47
2019-02-06T02:51:54.916Z,101669.85
2019-02-06T02:54:02.164Z,101671.16
2019-02-06T02:56:09.369Z,101672.47
2019-02-06T02:58:16.788Z,101673.75
2019-02-06T03:00:30.899Z,101668.14
2019-02-06T03:02:47.540Z,101678.97
2019-02-06T03:05:05.219Z,101680.25
2019-02-06T03:07:12.508Z,101678.09
2019-02-06T03:09:19.833Z,101680.25
2019-02-06T03:11:27.147Z,101685.45
2019-02-06T03:13:34.801Z,101676.77
2019-02-06T03:15:42.080Z,101678.54
2019-02-06T03:17:49.481Z,101685.91
2019-02-06T03:19:56.920Z,101681.15
2019-02-06T03:22:04.267Z,101676.81
2019-02-06T03:24:12.053Z,101678.11
2019-02-06T03:26:19.429Z,101671.64
2019-02-06T03:28:26.838Z,101669.04
2019-02-06T03:30:34.232Z,101670.80
2019-02-06T03:32:41.782Z,101677.28
2019-02-06T03:34:49.060Z,101679.45
2019-02-06T03:36:56.417Z,101676.41
2019-02-06T03:39:05.313Z,101677.30
2019-02-06T03:41:12.677Z,101679.02
2019-02-06T03:43:19.911Z,101677.72
2019-02-06T03:45:27.144Z,101689.86
2019-02-06T03:47:34.554Z,101683.37
2019-02-06T03:49:42.769Z,101686.39
2019-02-06T03:51:50.175Z,101682.95
2019-02-06T03:53:57.707Z,101697.23
2019-02-06T03:56:05.182Z,101684.67
2019-02-06T03:58:12.697Z,101688.57
2019-02-06T04:00:20.133Z,101688.59
2019-02-06T04:02:27.585Z,101687.27
2019-02-06T04:04:35.018Z,101689.88
2019-02-06T04:06:53.675Z,101686.88
2019-02-06T04:08:51.110Z,101682.98
2019-02-06T04:10:58.677Z,101682.97
2019-02-06T04:13:05.991Z,101680.83
2019-02-06T04:15:13.081Z,101676.48
2019-02-06T04:17:20.108Z,101684.31
2019-02-06T04:19:27.819Z,101683.86
2019-02-06T04:21:35.194Z,101681.30
2019-02-06T04:23:42.592Z,101686.94
2019-02-06T04:25:50.107Z,101683.04
2019-02-06T04:27:57.535Z,101684.78
2019-02-06T04:30:05.097Z,101690.41
2019-02-06T04:32:12.508Z,101692.14
2019-02-06T04:34:19.848Z,101695.19
2019-02-06T04:36:27.228Z,101693.89
2019-02-06T04:38:34.651Z,101695.64
2019-02-06T04:40:42.053Z,101692.15
2019-02-06T04:42:49.222Z,101700.85
2019-02-06T04:44:56.618Z,101696.93
2019-02-06T04:47:04.368Z,101696.08
2019-02-06T04:49:11.868Z,101703.91
2019-02-06T04:51:19.325Z,101696.98
2019-02-06T04:53:26.700Z,101709.11
2019-02-06T04:55:34.052Z,101705.64
2019-02-06T04:57:41.512Z,101707.82
2019-02-06T04:59:48.918Z,101707.42
2019-02-06T05:01:56.388Z,101705.64
2019-02-06T05:04:03.842Z,101712.13
2019-02-06T05:06:11.157Z,101706.95
2019-02-06T05:08:18.634Z,101715.66
2019-02-06T05:10:25.867Z,101712.60
2019-02-06T05:12:33.334Z,101714.36
2019-02-06T05:14:41.052Z,101712.16
2019-02-06T05:16:48.488Z,101709.14
2019-02-06T05:18:55.682Z,101715.66
2019-02-06T05:21:03.173Z,101716.06
2019-02-06T05:23:10.928Z,101721.70
2019-02-06T05:25:18.351Z,101714.36
2019-02-06T05:27:26.026Z,101722.55
2019-02-06T05:29:34.434Z,101721.72
2019-02-06T05:31:41.925Z,101719.56
2019-02-06T05:33:49.286Z,101719.14
2019-02-06T05:35:56.690Z,101720.86
2019-02-06T05:38:04.099Z,101721.72
2019-02-06T05:40:11.365Z,101715.23
2019-02-06T05:42:18.918Z,101723.46
2019-02-06T05:44:26.402Z,101726.52
2019-02-06T05:46:33.762Z,101728.70
2019-02-06T05:48:44.349Z,101728.70
2019-02-06T05:50:51.678Z,101727.41
2019-02-06T05:52:59.008Z,101731.73
2019-02-06T05:55:07.200Z,101732.59
2019-02-06T05:57:14.432Z,101742.53
2019-02-06T05:59:21.735Z,101731.72
2019-02-06T06:01:29.061Z,101734.33
2019-02-06T06:03:36.574Z,101744.30
2019-02-06T06:05:44.073Z,101742.55
2019-02-06T06:07:51.532Z,101740.41
2019-02-06T06:09:59.115Z,101748.20
2019-02-06T06:12:06.595Z,101737.80
2019-02-06T06:14:13.945Z,101742.14
2019-02-06T06:16:21.474Z,101740.83
2019-02-06T06:18:28.789Z,101751.68
2019-02-06T06:20:36.256Z,101746.46
2019-02-06T06:22:43.654Z,101740.83
2019-02-06T06:24:51.138Z,101743.89
2019-02-06T06:26:58.525Z,101749.11
2019-02-06T06:29:05.987Z,101758.18
2019-02-06T06:31:13.334Z,101762.94
2019-02-06T06:33:20.719Z,101755.13
2019-02-06T06:35:28.841Z,101748.64
2019-02-06T06:37:36.190Z,101750.81
2019-02-06T06:39:43.664Z,101762.92
2019-02-06T06:41:51.058Z,101755.13
2019-02-06T06:43:58.483Z,101767.25
2019-02-06T06:46:05.947Z,101757.30
2019-02-06T06:48:13.302Z,101772.02
2019-02-06T06:50:22.919Z,101773.31
2019-02-06T06:52:30.041Z,101779.80
2019-02-06T06:54:37.461Z,101773.31
2019-02-06T06:56:44.779Z,101775.95
2019-02-06T06:58:52.131Z,101783.30
2019-02-06T07:00:59.583Z,101785.48
2019-02-06T07:03:07.133Z,101787.66
2019-02-06T07:05:14.562Z,101783.34
2019-02-06T07:07:22.012Z,101782.04
2019-02-06T07:09:29.362Z,101786.36
2019-02-06T07:11:36.834Z,101788.96
2019-02-06T07:13:44.288Z,101793.73
2019-02-06T07:15:51.623Z,101791.12
2019-02-06T07:17:59.148Z,101791.58
2019-02-06T07:20:07.453Z,101796.34
2019-02-06T07:22:14.815Z,101798.08
2019-02-06T07:24:22.253Z,101798.08
2019-02-06T07:26:29.715Z,101793.33
2019-02-06T07:28:37.048Z,101793.33
2019-02-06T07:30:56.238Z,101798.09
2019-02-06T07:33:06.737Z,101803.72
2019-02-06T07:35:13.960Z,101796.37
2019-02-06T07:37:21.280Z,101804.19
2019-02-06T07:39:28.676Z,101811.11
2019-02-06T07:41:35.856Z,101807.66
2019-02-06T07:43:43.705Z,101809.83
2019-02-06T07:45:51.245Z,101807.66
2019-02-06T07:47:58.827Z,101811.12
2019-02-06T07:50:07.780Z,101808.98
2019-02-06T07:52:15.328Z,101815.92
2019-02-06T07:54:22.707Z,101820.26
2019-02-06T07:56:30.245Z,101818.55
2019-02-06T07:58:37.498Z,101814.64
2019-02-06T08:00:44.908Z,101819.41
2019-02-06T08:02:52.579Z,101815.53
2019-02-06T08:05:06.391Z,101824.62
2019-02-06T08:07:13.806Z,101818.14
2019-02-06T08:09:21.165Z,101821.60
2019-02-06T08:11:28.592Z,101818.16
2019-02-06T08:13:35.876Z,101818.59
2019-02-06T08:15:43.418Z,101805.19
2019-02-06T08:17:50.909Z,101812.13
2019-02-06T08:19:58.277Z,101817.78
2019-02-06T08:22:05.807Z,101804.77
2019-02-06T08:24:13.361Z,101817.36
2019-02-06T08:26:20.769Z,101828.23
2019-02-06T08:28:28.205Z,101816.53
2019-02-06T08:30:41.320Z,101823.49
2019-02-06T08:32:48.586Z,101835.64
2019-02-06T08:34:56.100Z,101840.86
2019-02-06T08:37:03.648Z,101848.26
2019-02-06T08:39:11.486Z,101846.10
2019-02-06T08:41:18.940Z,101841.34
2019-02-06T08:43:26.395Z,101851.77
2019-02-06T08:45:34.091Z,101854.81
2019-02-06T08:47:41.801Z,101850.08
2019-02-06T08:49:49.334Z,101857.46
2019-02-06T08:51:56.809Z,101859.23
2019-02-06T08:54:04.278Z,101859.23
2019-02-06T08:56:11.835Z,101845.36
2019-02-06T08:58:19.330Z,101857.09
2019-02-06T09:00:29.855Z,101863.59
2019-02-06T09:02:37.505Z,101866.63
2019-02-06T09:04:55.563Z,101861.00
2019-02-06T09:06:54.718Z,101857.13
2019-02-06T09:09:02.564Z,101853.23
2019-02-06T09:11:10.980Z,101861.48
2019-02-06T09:13:18.590Z,101865.87
2019-02-06T09:15:27.330Z,101859.36
2019-02-06T09:17:34.970Z,101863.23
2019-02-06T09:19:42.558Z,101862.83
2019-02-06T09:21:50.154Z,101865.02
2019-02-06T09:23:57.850Z,101860.70
2019-02-06T09:26:05.416Z,101854.20
2019-02-06T09:28:12.859Z,101862.91
2019-02-06T09:30:23.402Z,101860.77
2019-02-06T09:32:30.900Z,101866.81
2019-02-06T09:34:38.525Z,101866.86
2019-02-06T09:36:46.028Z,101870.33
2019-02-06T09:38:53.680Z,101874.67
2019-02-06T09:41:01.173Z,101879.02
2019-02-06T09:43:08.891Z,101880.38
2019-02-06T09:45:16.325Z,101881.66
2019-02-06T09:47:23.655Z,101881.23
2019-02-06T09:49:31.135Z,101885.16
2019-02-06T09:51:38.657Z,101881.64
2019-02-06T09:53:46.235Z,101879.49
2019-02-06T09:55:53.688Z,101882.57
2019-02-06T09:58:01.178Z,101882.58
2019-02-06T10:00:13.294Z,101884.34
2019-02-06T10:02:20.786Z,101874.34
2019-02-06T10:04:28.216Z,101872.56
2019-02-06T10:06:35.803Z,101881.25
2019-02-06T10:08:43.285Z,101875.16
2019-02-06T10:10:50.653Z,101883.00
2019-02-06T10:12:58.047Z,101877.77
2019-02-06T10:15:05.661Z,101874.72
2019-02-06T10:17:13.129Z,101876.47
2019-02-06T10:19:20.473Z,101874.73
2019-02-06T10:21:27.845Z,101876.92
2019-02-06T10:23:35.342Z,101877.78
2019-02-06T10:25:43.459Z,101870.41
2019-02-06T10:27:51.066Z,101866.05
2019-02-06T10:29:58.728Z,101870.39
2019-02-06T10:32:07.436Z,101867.37
2019-02-06T10:34:15.026Z,101858.74
2019-02-06T10:36:22.450Z,101852.22
2019-02-06T10:38:29.913Z,101853.11
2019-02-06T10:40:37.288Z,101846.59
2019-02-06T10:42:44.866Z,101855.75
2019-02-06T10:44:52.311Z,101853.61
2019-02-06T10:46:59.731Z,101854.93
2019-02-06T10:49:07.820Z,101847.53
2019-02-06T10:51:15.870Z,101842.77
2019-02-06T10:53:25.026Z,101846.23
2019-02-06T10:55:32.514Z,101841.47
2019-02-06T10:57:40.334Z,101848.39
2019-02-06T10:59:47.902Z,101840.61
2019-02-06T11:01:55.535Z,101841.02
2019-02-06T11:04:03.012Z,101844.52
2019-02-06T11:06:10.705Z,101848.41
2019-02-06T11:08:18.524Z,101839.29
2019-02-06T11:10:26.351Z,101841.03
2019-02-06T11:12:34.385Z,101848.00
2019-02-06T11:14:42.010Z,101845.80
2019-02-06T11:16:49.553Z,101848.85
2019-02-06T11:18:57.329Z,101851.02
2019-02-06T11:21:04.696Z,101841.89
2019-02-06T11:23:12.285Z,101838.44
2019-02-06T11:25:20.080Z,101836.25
2019-02-06T11:27:27.706Z,101837.55
2019-02-06T11:29:35.219Z,101834.50
2019-02-06T11:31:42.821Z,101831.05
2019-02-06T11:33:50.466Z,101835.38
2019-02-06T11:35:58.090Z,101836.25
2019-02-06T11:38:05.667Z,101829.72
2019-02-06T11:40:18.644Z,101827.12
2019-02-06T11:42:26.239Z,101825.84
2019-02-06T11:44:33.990Z,101824.08
2019-02-06T11:46:41.574Z,101821.89
2019-02-06T11:48:49.087Z,101820.59
2019-02-06T11:50:57.360Z,101813.64
2019-02-06T11:53:05.018Z,101820.17
2019-02-06T11:55:16.625Z,101822.34
2019-02-06T11:57:24.427Z,101817.13
2019-02-06T11:59:32.024Z,101810.58
2019-02-06T12:01:46.409Z,101804.05
2019-02-06T12:03:54.278Z,101809.26
2019-02-06T12:06:01.562Z,101812.30
2019-02-06T12:08:12.414Z,101808.85
2019-02-06T12:10:19.126Z,101803.63
2019-02-06T12:12:26.604Z,101800.16
2019-02-06T12:14:34.200Z,101802.76
2019-02-06T12:16:41.974Z,101803.16
2019-02-06T12:18:49.472Z,101796.63
2019-02-06T12:20:57.131Z,101801.86
2019-02-06T12:23:05.595Z,101803.59
2019-02-06T12:25:15.342Z,101800.07
2019-02-06T12:27:23.265Z,101797.48
2019-02-06T12:29:31.304Z,101802.72
2019-02-06T12:31:39.050Z,101804.86
2019-02-06T12:33:46.677Z,101796.19
2019-02-06T12:35:54.087Z,101796.60
2019-02-06T12:38:01.535Z,101800.97
2019-02-06T12:40:20.747Z,101797.52
2019-02-06T12:42:18.265Z,101798.81
2019-02-06T12:44:25.291Z,101807.08
2019-02-06T12:46:32.562Z,101799.67
2019-02-06T12:48:40.161Z,101795.73
2019-02-06T12:50:47.306Z,101795.72
2019-02-06T12:52:57.225Z,101786.06
2019-02-06T12:55:03.349Z,101790.86
2019-02-06T12:57:10.396Z,101788.72
2019-02-06T12:59:17.620Z,101790.47
2019-02-06T13:01:24.840Z,101784.38
2019-02-06T13:03:31.979Z,101793.94
2019-02-06T13:05:39.085Z,101786.56
2019-02-06T13:07:46.144Z,101787.85
2019-02-06T13:09:53.196Z,101787.00
2019-02-06T13:12:00.398Z,101789.19
2019-02-06T13:14:07.663Z,101787.89
2019-02-06T13:16:14.804Z,101792.69
2019-02-06T13:18:24.140Z,101786.20
2019-02-06T13:20:31.444Z,101789.24
2019-02-06T13:22:38.469Z,101784.45
2019-02-06T13:24:45.932Z,101776.63
2019-02-06T13:26:53.047Z,101782.66
2019-02-06T13:29:00.667Z,101781.80
2019-02-06T13:31:07.718Z,101784.83
2019-02-06T13:33:14.832Z,101780.91
2019-02-06T13:35:21.895Z,101782.66
2019-02-06T13:37:28.977Z,101774.83
2019-02-06T13:39:36.070Z,101767.43
2019-02-06T13:41:43.367Z,101778.70
2019-02-06T13:43:50.568Z,101772.63
2019-02-06T13:45:57.744Z,101776.98
2019-02-06T13:48:05.342Z,101787.88
2019-02-06T13:50:21.526Z,101785.26
2019-02-06T13:52:22.189Z,101777.03
2019-02-06T13:54:29.327Z,101773.95
2019-02-06T13:56:37.136Z,101775.28
2019-02-06T13:58:44.663Z,101770.52
2019-02-06T14:00:52.599Z,101771.81
2019-02-06T14:02:59.936Z,101773.59
2019-02-06T14:05:07.212Z,101772.29
2019-02-06T14:07:14.316Z,101771.43
2019-02-06T14:09:24.251Z,101771.44
2019-02-06T14:11:30.208Z,101771.44
2019-02-06T14:13:37.388Z,101771.88
2019-02-06T14:15:47.038Z,101770.61
2019-02-06T14:17:54.463Z,101776.69
2019-02-06T14:20:01.917Z,101769.73
2019-02-06T14:22:09.990Z,101775.41
2019-02-06T14:24:55.503Z,101775.42
2019-02-06T14:27:59.666Z,101768.89
2019-02-06T14:31:02.846Z,101778.02
2019-02-06T14:34:21.520Z,101773.23
2019-02-06T14:37:45.814Z,101769.75
2019-02-06T14:40:53.659Z,101771.08
2019-02-06T14:43:39.074Z,101775.40
2019-02-06T14:46:47.907Z,101769.75
2019-02-06T14:49:34.916Z,101773.23
2019-02-06T14:52:23.418Z,101771.94
2019-02-06T14:55:24.700Z,101770.61
2019-02-06T14:58:22.519Z,101764.97
2019-02-06T15:00:59.910Z,101774.98
2019-02-06T15:03:58.642Z,101766.72
2019-02-06T15:07:05.892Z,101763.68
2019-02-06T15:10:20.447Z,101767.14
2019-02-06T15:13:22.637Z,101760.18
2019-02-06T15:16:09.783Z,101764.53
2019-02-06T15:19:15.013Z,101766.23
2019-02-06T15:22:17.557Z,101761.89
2019-02-06T15:25:08.515Z,101758.00
2019-02-06T15:28:06.666Z,101754.52
2019-02-06T15:31:22.655Z,101758.83
2019-02-06T15:34:15.521Z,101759.66
2019-02-06T15:36:50.615Z,101754.01
2019-02-06T15:39:51.614Z,101757.83
2019-02-06T15:42:57.580Z,101752.16
2019-02-06T15:45:37.884Z,101748.22
2019-02-06T15:48:30.023Z,101743.03
2019-02-06T15:51:38.383Z,101750.77
2019-02-06T15:54:21.176Z,101748.95
2019-02-06T15:57:26.677Z,101749.34
2019-02-06T16:00:24.393Z,101743.67
2019-02-06T16:03:56.158Z,101739.33
2019-02-06T16:06:53.242Z,101739.27
2019-02-06T16:09:45.814Z,101738.80
2019-02-06T16:13:08.604Z,101739.57
2019-02-06T16:16:44.260Z,101745.59
2019-02-06T16:19:23.774Z,101735.20
2019-02-06T16:22:07.317Z,101742.02
2019-02-06T16:25:09.966Z,101746.23
2019-02-06T16:28:00.204Z,101750.97
2019-02-06T16:31:12.619Z,101749.66
2019-02-06T16:34:06.473Z,101756.11
2019-02-06T16:40:37.580Z,101753.28
2019-02-06T16:43:35.460Z,101752.37
2019-02-06T16:46:49.681Z,101753.62
2019-02-06T16:49:28.020Z,101743.65
2019-02-06T16:52:19.816Z,101751.03
2019-02-06T16:55:30.927Z,101745.36
2019-02-06T16:58:20.822Z,101754.68
2019-02-06T17:01:21.922Z,101750.75
2019-02-06T17:04:04.922Z,101755.80
2019-02-06T17:06:45.616Z,101758.38
2019-02-06T17:10:05.007Z,101756.67
2019-02-06T17:12:59.326Z,101762.31
2019-02-06T17:16:11.980Z,101752.10
2019-02-06T17:19:17.013Z,101757.78
2019-02-06T17:22:08.311Z,101751.61
2019-02-06T17:25:10.264Z,101754.67
2019-02-06T17:28:27.993Z,101765.09
2019-02-06T17:31:42.589Z,101775.04
2019-02-06T17:34:48.624Z,101761.84
2019-02-06T17:37:56.649Z,101767.77
2019-02-06T17:41:18.643Z,101752.59
2019-02-06T17:44:17.176Z,101755.27
2019-02-06T17:46:51.394Z,101751.59
2019-02-06T17:49:49.659Z,101734.59
2019-02-06T17:52:44.527Z,101738.42
2019-02-06T17:55:38.985Z,101742.13
2019-02-06T17:57:47.083Z,101753.78
2019-02-06T17:59:54.628Z,101750.42
2019-02-06T18:02:02.539Z,101738.22
2019-02-06T18:04:49.401Z,101739.34
2019-02-06T18:06:57.334Z,101746.00
2019-02-06T18:09:08.399Z,101740.38
2019-02-06T18:11:16.098Z,101740.86
2019-02-06T18:13:24.149Z,101751.18
2019-02-06T18:15:31.671Z,101743.89
2019-02-06T18:17:39.331Z,101741.35
2019-02-06T18:19:47.163Z,101748.78
2019-02-06T18:21:54.749Z,101744.89
2019-02-06T18:24:02.279Z,101743.05
2019-02-06T18:26:10.224Z,101746.92
2019-02-06T18:28:18.520Z,101748.37
2019-02-06T18:30:27.410Z,101750.08
2019-02-06T18:32:34.884Z,101747.56
2019-02-06T18:34:42.621Z,101747.11
2019-02-06T18:36:50.135Z,101744.43
2019-02-06T18:38:58.127Z,101751.86
2019-02-06T18:41:06.156Z,101752.32
2019-02-06T18:43:13.708Z,101755.34
2019-02-06T18:45:22.748Z,101749.72
2019-02-06T18:47:30.484Z,101757.42
2019-02-06T18:49:37.838Z,101759.64
2019-02-06T18:51:45.849Z,101750.51
2019-02-06T18:53:53.562Z,101755.86
2019-02-06T18:56:01.080Z,101754.09
2019-02-06T18:58:09.308Z,101747.92
2019-02-06T19:00:24.478Z,101758.34
2019-02-06T19:02:32.195Z,101748.86
2019-02-06T19:04:40.720Z,101752.75
2019-02-06T19:06:48.521Z,101754.86
2019-02-06T19:08:58.093Z,101751.78
2019-02-06T19:11:05.955Z,101752.22
2019-02-06T19:13:14.356Z,101753.00
2019-02-06T19:15:22.317Z,101748.19
2019-02-06T19:17:30.959Z,101745.53
2019-02-06T19:19:39.137Z,101751.16
2019-02-06T19:21:46.722Z,101747.20
2019-02-06T19:23:54.314Z,101743.27
2019-02-06T19:26:01.986Z,101742.80
2019-02-06T19:28:09.505Z,101741.07
2019-02-06T19:30:26.020Z,101743.55
2019-02-06T19:32:34.013Z,101746.51
2019-02-06T19:34:41.687Z,101742.13
2019-02-06T19:36:49.242Z,101743.23
2019-02-06T19:38:56.762Z,101745.06
2019-02-06T19:41:04.466Z,101748.64
2019-02-06T19:43:11.964Z,101748.14
2019-02-06T19:45:20.060Z,101745.98
2019-02-06T19:47:30.560Z,101745.30
2019-02-06T19:49:37.765Z,101742.37
2019-02-06T19:51:45.730Z,101740.67
2019-02-06T19:53:53.246Z,101739.34
2019-02-06T19:56:00.948Z,101748.02
2019-02-06T19:58:09.385Z,101750.58
2019-02-06T20:00:21.317Z,101743.20
2019-02-06T20:02:29.247Z,101740.67
2019-02-06T20:04:37.232Z,101735.05
2019-02-06T20:06:44.979Z,101735.48
2019-02-06T20:08:52.697Z,101735.48
2019-02-06T20:11:01.254Z,101733.78
2019-02-06T20:13:11.441Z,101727.70
2019-02-06T20:15:18.327Z,101725.14
2019-02-06T20:17:26.190Z,101732.80
2019-02-06T20:19:33.920Z,101729.34
2019-02-06T20:21:41.462Z,101722.81
2019-02-06T20:23:48.838Z,101724.10
2019-02-06T20:25:56.916Z,101715.89
2019-02-06T20:28:04.821Z,101724.91
2019-02-06T20:30:17.294Z,101722.29
2019-02-06T20:32:24.945Z,101722.08
2019-02-06T20:34:32.834Z,101723.77
2019-02-06T20:36:40.549Z,101720.69
2019-02-06T20:38:48.841Z,101726.27
2019-02-06T20:40:58.407Z,101721.13
2019-02-06T20:43:06.295Z,101710.59
2019-02-06T20:45:14.124Z,101700.07
2019-02-06T20:47:22.064Z,101708.31
2019-02-06T20:49:29.731Z,101702.42
2019-02-06T20:51:37.439Z,101705.57
2019-02-06T20:53:45.212Z,101703.47
2019-02-06T20:55:52.867Z,101704.70
2019-02-06T20:58:00.613Z,101698.63
2019-02-06T21:00:12.751Z,101697.34
2019-02-06T21:02:20.440Z,101681.79
2019-02-06T21:04:28.333Z,101686.59
2019-02-06T21:06:35.766Z,101690.09
2019-02-06T21:08:43.386Z,101691.37
2019-02-06T21:10:51.376Z,101680.52
2019-02-06T21:12:59.274Z,101686.48
2019-02-06T21:15:06.913Z,101687.31
2019-02-06T21:17:14.566Z,101685.19
2019-02-06T21:19:22.638Z,101678.64
2019-02-06T21:21:30.419Z,101674.36
2019-02-06T21:23:37.940Z,101681.30
2019-02-06T21:25:46.962Z,101676.05
2019-02-06T21:27:54.549Z,101675.72
2019-02-06T21:30:02.187Z,101670.87
2019-02-06T21:32:09.691Z,101671.67
2019-02-06T21:34:17.266Z,101663.84
2019-02-06T21:36:24.667Z,101664.70
2019-02-06T21:38:32.313Z,101668.56
2019-02-06T21:40:39.850Z,101670.98
2019-02-06T21:42:47.946Z,101671.39
2019-02-06T21:44:55.913Z,101669.70
2019-02-06T21:47:04.022Z,101673.14
2019-02-06T21:49:11.811Z,101674.37
2019-02-06T21:51:19.451Z,101672.69
2019-02-06T21:53:26.848Z,101654.45
2019-02-06T21:55:34.608Z,101664.34
2019-02-06T21:57:43.824Z,101661.63
2019-02-06T21:59:51.359Z,101665.97
2019-02-06T22:01:59.108Z,101663.78
2019-02-06T22:04:07.094Z,101659.83
2019-02-06T22:06:14.911Z,101668.09
2019-02-06T22:08:24.890Z,101668.89
2019-02-06T22:10:32.548Z,101674.94
2019-02-06T22:12:40.107Z,101673.64
2019-02-06T22:14:47.868Z,101675.33
2019-02-06T22:16:55.326Z,101671.77
2019-02-06T22:19:03.195Z,101672.27
2019-02-06T22:21:11.061Z,101668.28
2019-02-06T22:23:19.032Z,101661.34
2019-02-06T22:25:27.199Z,101671.66
2019-02-06T22:27:35.334Z,101670.01
2019-02-06T22:29:43.380Z,101668.25
2019-02-06T22:31:51.099Z,101659.33
2019-02-06T22:33:59.224Z,101661.92
2019-02-06T22:36:07.064Z,101659.37
2019-02-06T22:38:14.823Z,101661.05
2019-02-06T22:40:24.492Z,101660.30
2019-02-06T22:42:32.561Z,101656.35
2019-02-06T22:44:41.136Z,101649.92
2019-02-06T22:46:48.978Z,101651.61
2019-02-06T22:48:56.967Z,101649.02
2019-02-06T22:51:04.796Z,101643.70
2019-02-06T22:53:12.707Z,101639.82
2019-02-06T22:55:20.625Z,101628.71
2019-02-06T22:57:28.632Z,101623.61
2019-02-06T22:59:36.252Z,101620.55
2019-02-06T23:02:02.177Z,101620.66
2019-02-06T23:04:09.885Z,101615.38
2019-02-06T23:06:17.649Z,101617.64
2019-02-06T23:08:25.481Z,101617.34
2019-02-06T23:10:33.128Z,101614.19
2019-02-06T23:12:40.815Z,101606.00
2019-02-06T23:14:48.459Z,101610.41
2019-02-06T23:16:56.328Z,101610.31
2019-02-06T23:19:04.176Z,101608.19
2019-02-06T23:21:11.970Z,101593.98
2019-02-06T23:23:19.798Z,101597.01
2019-02-06T23:25:27.406Z,101593.59
2019-02-06T23:27:35.143Z,101589.28
2019-02-06T23:29:43.045Z,101591.86
2019-02-06T23:31:50.981Z,101588.81
2019-02-06T23:33:59.024Z,101581.52
2019-02-06T23:36:07.212Z,101580.25
2019-02-06T23:38:14.949Z,101579.86
2019-02-06T23:40:22.918Z,101573.35
2019-02-06T23:42:30.803Z,101572.92
2019-02-06T23:44:38.533Z,101569.96
2019-02-06T23:46:46.031Z,101559.98
2019-02-06T23:48:53.651Z,101561.34
2019-02-06T23:51:01.490Z,101553.66
2019-02-06T23:53:09.153Z,101545.44
2019-02-06T23:55:16.819Z,101542.08
2019-02-06T23:57:24.380Z,101547.62
2019-02-06T23:59:32.087Z,101544.70
